createdAt,value
2022-10-11T00:00:32.167Z,88.80
2022-10-11T00:03:02.325Z,88.24
2022-10-11T00:05:30.824Z,88.51
2022-10-11T00:07:59.474Z,88.26
2022-10-11T00:10:28.202Z,87.97
2022-10-11T00:12:56.733Z,87.91
2022-10-11T00:15:27.408Z,87.84
2022-10-11T00:17:55.717Z,88.16
2022-10-11T00:20:26.549Z,87.62
2022-10-11T00:22:54.945Z,88.20
2022-10-11T00:25:23.333Z,88.18
2022-10-11T00:27:51.620Z,88.33
2022-10-11T00:30:20.038Z,88.59
2022-10-11T00:32:50.502Z,88.58
2022-10-11T00:35:22.484Z,88.48
2022-10-11T00:37:52.196Z,88.49
2022-10-11T00:40:22.717Z,88.76
2022-10-11T00:42:50.760Z,88.63
2022-10-11T00:46:01.206Z,88.91
2022-10-11T00:48:36.370Z,89.14
2022-10-11T00:51:09.604Z,89.02
2022-10-11T00:53:45.152Z,89.28
2022-10-11T00:56:18.556Z,89.47
2022-10-11T00:58:49.681Z,89.55
2022-10-11T01:01:20.526Z,89.72
2022-10-11T01:03:52.101Z,89.46
2022-10-11T01:06:21.242Z,89.32
2022-10-11T01:08:55.399Z,89.47
2022-10-11T01:11:26.568Z,89.57
2022-10-11T01:14:12.984Z,89.63
2022-10-11T01:16:49.292Z,89.71
2022-10-11T01:19:37.257Z,89.93
2022-10-11T01:22:12.037Z,90.31
2022-10-11T01:25:17.828Z,90.32
2022-10-11T01:28:01.725Z,90.52
2022-10-11T01:30:36.495Z,90.64
2022-10-11T01:33:15.933Z,90.60
2022-10-11T01:35:53.932Z,90.98
2022-10-11T01:38:26.978Z,91.23
2022-10-11T01:41:03.843Z,91.32
2022-10-11T01:43:34.634Z,91.49
2022-10-11T01:46:06.698Z,91.45
2022-10-11T01:48:49.613Z,91.17
2022-10-11T01:51:22.922Z,91.20
2022-10-11T01:54:06.594Z,91.04
2022-10-11T01:57:15.142Z,91.12
2022-10-11T01:59:57.250Z,91.23
2022-10-11T02:02:42.467Z,91.09
2022-10-11T02:05:20.189Z,90.96
2022-10-11T02:08:01.010Z,91.22
2022-10-11T02:10:35.321Z,91.43
2022-10-11T02:13:09.626Z,91.47
2022-10-11T02:15:42.373Z,91.76
2022-10-11T02:18:19.452Z,91.66
2022-10-11T02:20:50.217Z,91.90
2022-10-11T02:23:27.838Z,91.88
2022-10-11T02:25:58.741Z,91.75
2022-10-11T02:28:33.012Z,92.18
2022-10-11T02:31:04.161Z,92.03
2022-10-11T02:33:42.265Z,92.64
2022-10-11T02:36:17.376Z,91.96
2022-10-11T02:38:50.125Z,91.66
2022-10-11T02:41:25.900Z,92.05
2022-10-11T02:44:02.390Z,92.32
2022-10-11T02:46:34.666Z,92.31
2022-10-11T02:49:05.390Z,92.12
2022-10-11T02:51:34.367Z,92.21
2022-10-11T02:54:05.299Z,91.83
2022-10-11T02:56:33.857Z,91.47
2022-10-11T02:59:02.158Z,91.29
2022-10-11T03:01:31.018Z,91.47
2022-10-11T03:04:04.418Z,91.62
2022-10-11T03:06:34.197Z,91.92
2022-10-11T03:09:05.363Z,92.33
2022-10-11T03:11:37.636Z,92.39
2022-10-11T03:14:12.412Z,92.38
2022-10-11T03:16:43.173Z,92.44
2022-10-11T03:19:19.535Z,92.35
2022-10-11T03:21:47.736Z,92.36
2022-10-11T03:24:18.623Z,92.44
2022-10-11T03:26:47.171Z,92.55
2022-10-11T03:29:18.708Z,92.41
2022-10-11T03:31:50.348Z,92.70
2022-10-11T03:34:23.571Z,92.69
2022-10-11T03:36:56.459Z,92.59
2022-10-11T03:39:25.767Z,92.58
2022-10-11T03:41:55.964Z,92.92
2022-10-11T03:44:23.999Z,92.75
2022-10-11T03:46:57.488Z,92.93
2022-10-11T03:49:27.330Z,92.83
2022-10-11T03:51:56.370Z,92.24
2022-10-11T03:54:26.563Z,92.16
2022-10-11T03:57:00.001Z,92.34
2022-10-11T03:59:29.209Z,92.44
2022-10-11T04:01:57.274Z,91.85
2022-10-11T04:04:34.680Z,91.50
2022-10-11T04:07:05.813Z,91.73
2022-10-11T04:09:35.002Z,91.34
2022-10-11T04:12:05.029Z,91.25
2022-10-11T04:14:36.920Z,91.34
2022-10-11T04:17:10.407Z,91.02
2022-10-11T04:19:45.811Z,90.80
2022-10-11T04:22:16.100Z,90.68
2022-10-11T04:24:45.603Z,90.61
2022-10-11T04:27:15.271Z,90.90
2022-10-11T04:29:45.845Z,91.03
2022-10-11T04:32:14.277Z,90.57
2022-10-11T04:34:44.142Z,90.62
2022-10-11T04:37:16.500Z,90.96
2022-10-11T04:39:47.640Z,91.00
2022-10-11T04:42:18.968Z,90.83
2022-10-11T04:44:48.043Z,90.48
2022-10-11T04:47:18.464Z,90.36
2022-10-11T04:49:49.359Z,90.42
2022-10-11T04:52:22.115Z,90.65
2022-10-11T04:54:55.390Z,90.64
2022-10-11T04:57:24.911Z,91.01
2022-10-11T04:59:53.233Z,90.92
2022-10-11T05:02:30.786Z,90.60
2022-10-11T05:05:06.594Z,91.10
2022-10-11T05:07:37.843Z,90.71
2022-10-11T05:10:09.983Z,90.63
2022-10-11T05:12:39.225Z,91.29
2022-10-11T05:15:10.865Z,90.87
2022-10-11T05:17:39.761Z,91.14
2022-10-11T05:20:11.128Z,91.67
2022-10-11T05:22:39.545Z,91.51
2022-10-11T05:25:08.296Z,91.76
2022-10-11T05:27:38.629Z,91.68
2022-10-11T05:30:10.936Z,91.35
2022-10-11T05:32:48.229Z,91.65
2022-10-11T05:35:24.065Z,91.72
2022-10-11T05:37:54.420Z,91.42
2022-10-11T05:40:25.543Z,91.01
2022-10-11T05:42:56.917Z,91.07
2022-10-11T05:45:25.393Z,91.59
2022-10-11T05:47:59.768Z,91.74
2022-10-11T05:50:31.595Z,91.79
2022-10-11T05:53:00.480Z,91.78
2022-10-11T05:55:36.489Z,91.19
2022-10-11T05:58:08.255Z,91.04
2022-10-11T06:00:39.262Z,91.73
2022-10-11T06:03:08.951Z,92.12
2022-10-11T06:05:40.080Z,91.87
2022-10-11T06:08:10.036Z,91.25
2022-10-11T06:10:44.051Z,90.26
2022-10-11T06:13:15.754Z,89.50
2022-10-11T06:15:46.269Z,89.31
2022-10-11T06:18:16.347Z,88.91
2022-10-11T06:20:53.663Z,88.66
2022-10-11T06:23:23.680Z,88.63
2022-10-11T06:26:00.339Z,87.61
2022-10-11T06:28:37.036Z,87.70
2022-10-11T06:31:09.616Z,88.13
2022-10-11T06:33:43.255Z,87.69
2022-10-11T06:36:21.422Z,88.00
2022-10-11T06:38:55.995Z,88.08
2022-10-11T06:41:26.842Z,87.78
2022-10-11T06:43:55.855Z,87.11
2022-10-11T06:46:28.734Z,86.60
2022-10-11T06:48:58.163Z,86.20
2022-10-11T06:51:31.717Z,85.82
2022-10-11T06:54:02.698Z,85.24
2022-10-11T06:56:33.054Z,84.90
2022-10-11T06:59:05.981Z,85.08
2022-10-11T07:01:43.169Z,85.15
2022-10-11T07:04:13.998Z,85.53
2022-10-11T07:06:48.019Z,84.13
2022-10-11T07:09:17.360Z,84.28
2022-10-11T07:11:46.331Z,84.84
2022-10-11T07:14:14.755Z,83.83
2022-10-11T07:16:49.915Z,83.05
2022-10-11T07:19:24.712Z,82.76
2022-10-11T07:22:09.470Z,83.16
2022-10-11T07:24:50.351Z,82.24
2022-10-11T07:27:22.691Z,82.08
2022-10-11T07:29:54.646Z,82.19
2022-10-11T07:32:25.139Z,82.32
2022-10-11T07:34:57.210Z,83.82
2022-10-11T07:37:36.837Z,82.83
2022-10-11T07:40:10.859Z,82.41
2022-10-11T07:42:40.463Z,83.40
2022-10-11T07:45:11.953Z,82.84
2022-10-11T07:47:46.784Z,82.65
2022-10-11T07:50:18.103Z,81.56
2022-10-11T07:52:49.918Z,81.61
2022-10-11T07:55:19.889Z,81.32
2022-10-11T07:57:49.733Z,80.50
2022-10-11T08:00:18.850Z,79.42
2022-10-11T08:03:15.175Z,79.97
2022-10-11T08:05:43.393Z,80.00
2022-10-11T08:08:16.580Z,79.64
2022-10-11T08:10:47.061Z,79.21
2022-10-11T08:13:15.317Z,79.60
2022-10-11T08:15:44.102Z,79.36
2022-10-11T08:18:18.753Z,78.97
2022-10-11T08:20:49.596Z,79.51
2022-10-11T08:23:22.419Z,78.79
2022-10-11T08:26:00.112Z,78.69
2022-10-11T08:28:31.196Z,78.07
2022-10-11T08:31:04.168Z,77.93
2022-10-11T08:33:32.651Z,79.14
2022-10-11T08:36:04.833Z,76.85
2022-10-11T08:38:37.980Z,76.21
2022-10-11T08:41:26.010Z,76.86
2022-10-11T08:44:07.235Z,75.94
2022-10-11T08:46:38.797Z,76.01
2022-10-11T08:49:10.383Z,76.74
2022-10-11T08:51:43.697Z,75.96
2022-10-11T08:54:21.973Z,74.62
2022-10-11T08:56:53.040Z,75.38
2022-10-11T08:59:32.212Z,75.02
2022-10-11T09:02:06.519Z,75.43
2022-10-11T09:04:38.579Z,73.62
2022-10-11T09:07:14.796Z,73.60
2022-10-11T09:10:10.846Z,74.80
2022-10-11T09:12:52.341Z,75.85
2022-10-11T09:15:31.020Z,75.94
2022-10-11T09:18:16.186Z,74.53
2022-10-11T09:21:03.883Z,73.59
2022-10-11T09:23:46.299Z,74.47
2022-10-11T09:26:26.671Z,75.19
2022-10-11T09:29:01.574Z,74.10
2022-10-11T09:31:31.102Z,74.11
2022-10-11T09:34:11.455Z,72.57
2022-10-11T09:36:49.045Z,73.16
2022-10-11T09:39:28.797Z,73.10
2022-10-11T09:42:02.828Z,73.65
2022-10-11T09:44:37.885Z,72.20
2022-10-11T09:47:16.236Z,70.21
2022-10-11T09:49:51.900Z,69.83
2022-10-11T09:52:25.726Z,69.66
2022-10-11T09:55:00.874Z,71.21
2022-10-11T09:57:34.305Z,69.49
2022-10-11T10:00:10.199Z,69.47
2022-10-11T10:02:49.081Z,70.60
2022-10-11T10:05:22.506Z,69.72
2022-10-11T10:08:05.261Z,69.67
2022-10-11T10:10:40.843Z,67.41
2022-10-11T10:13:26.153Z,68.91
2022-10-11T10:15:59.067Z,68.73
2022-10-11T10:18:32.490Z,68.35
2022-10-11T10:21:04.518Z,68.35
2022-10-11T10:23:37.135Z,67.39
2022-10-11T10:26:17.240Z,68.89
2022-10-11T10:29:05.407Z,68.16
2022-10-11T10:32:01.988Z,66.86
2022-10-11T10:34:36.802Z,63.76
2022-10-11T10:37:16.892Z,66.37
2022-10-11T10:39:51.046Z,65.87
2022-10-11T10:42:22.783Z,65.80
2022-10-11T10:44:57.234Z,64.32
2022-10-11T10:47:40.038Z,64.75
2022-10-11T10:50:15.121Z,64.63
2022-10-11T10:53:00.553Z,63.47
2022-10-11T10:55:36.835Z,61.60
2022-10-11T10:58:27.867Z,62.23
2022-10-11T11:01:19.063Z,61.59
2022-10-11T11:03:53.920Z,61.45
2022-10-11T11:06:28.445Z,61.49
2022-10-11T11:09:14.964Z,61.75
2022-10-11T11:11:59.022Z,63.34
2022-10-11T11:14:44.141Z,64.95
2022-10-11T11:17:36.164Z,64.22
2022-10-11T11:20:10.402Z,63.59
2022-10-11T11:22:54.974Z,64.99
2022-10-11T11:25:41.359Z,63.25
2022-10-11T11:28:27.559Z,63.55
2022-10-11T11:31:05.602Z,63.68
2022-10-11T11:33:48.651Z,64.56
2022-10-11T11:36:22.814Z,62.78
2022-10-11T11:38:55.708Z,63.87
2022-10-11T11:41:27.086Z,63.06
2022-10-11T11:44:13.347Z,64.31
2022-10-11T11:46:48.541Z,63.72
2022-10-11T11:49:26.440Z,63.59
2022-10-11T11:51:55.982Z,64.07
2022-10-11T11:54:38.285Z,64.58
2022-10-11T11:57:14.864Z,63.53
2022-10-11T11:59:56.255Z,61.81
2022-10-11T12:02:38.560Z,63.08
2022-10-11T12:05:11.665Z,63.30
2022-10-11T12:07:54.363Z,63.68
2022-10-11T12:10:54.789Z,64.01
2022-10-11T12:13:32.541Z,64.17
2022-10-11T12:16:13.265Z,63.50
2022-10-11T12:18:54.987Z,62.87
2022-10-11T12:21:37.262Z,61.72
2022-10-11T12:24:14.070Z,63.02
2022-10-11T12:26:47.156Z,62.25
2022-10-11T12:29:41.662Z,61.67
2022-10-11T12:32:59.903Z,62.27
2022-10-11T12:36:04.045Z,60.62
2022-10-11T12:38:43.838Z,61.64
2022-10-11T12:41:56.069Z,60.54
2022-10-11T12:44:26.448Z,60.19
2022-10-11T12:47:27.234Z,59.90
2022-10-11T12:50:26.196Z,59.45
2022-10-11T12:53:07.122Z,60.80
2022-10-11T12:55:51.106Z,58.72
2022-10-11T12:58:31.087Z,59.06
2022-10-11T13:01:24.252Z,58.16
2022-10-11T13:04:07.705Z,58.95
2022-10-11T13:06:51.266Z,60.13
2022-10-11T13:09:28.588Z,60.07
2022-10-11T13:12:04.491Z,61.53
2022-10-11T13:14:39.125Z,60.02
2022-10-11T13:17:25.093Z,61.95
2022-10-11T13:20:00.931Z,62.96
2022-10-11T13:22:33.189Z,63.93
2022-10-11T13:25:05.574Z,62.63
2022-10-11T13:27:39.593Z,62.96
2022-10-11T13:30:16.458Z,64.84
2022-10-11T13:32:49.624Z,65.02
2022-10-11T13:35:24.759Z,65.06
2022-10-11T13:38:00.441Z,65.18
2022-10-11T13:40:33.534Z,63.08
2022-10-11T13:43:11.230Z,62.58
2022-10-11T13:45:41.357Z,63.05
2022-10-11T13:48:18.971Z,65.42
2022-10-11T13:51:09.395Z,66.08
2022-10-11T13:53:41.218Z,65.63
2022-10-11T13:56:19.866Z,65.79
2022-10-11T13:58:50.707Z,65.40
2022-10-11T14:01:23.921Z,66.07
2022-10-11T14:03:58.154Z,64.90
2022-10-11T14:06:44.165Z,66.62
2022-10-11T14:09:29.945Z,62.63
2022-10-11T14:12:28.056Z,67.26
2022-10-11T14:15:01.839Z,68.47
2022-10-11T14:17:44.901Z,67.11
2022-10-11T14:20:22.602Z,69.12
2022-10-11T14:22:57.228Z,68.27
2022-10-11T14:25:30.784Z,67.86
2022-10-11T14:28:06.572Z,69.73
2022-10-11T14:30:42.174Z,68.84
2022-10-11T14:33:16.346Z,68.37
2022-10-11T14:35:48.597Z,68.71
2022-10-11T14:38:21.321Z,68.07
2022-10-11T14:40:52.629Z,67.81
2022-10-11T14:43:23.171Z,67.89
2022-10-11T14:45:56.612Z,67.56
2022-10-11T14:48:50.409Z,68.51
2022-10-11T14:51:15.447Z,69.09
2022-10-11T14:53:49.462Z,68.58
2022-10-11T14:56:21.491Z,69.81
2022-10-11T14:58:50.656Z,69.96
2022-10-11T15:01:21.092Z,71.29
2022-10-11T15:03:52.070Z,71.07
2022-10-11T15:06:22.747Z,71.78
2022-10-11T15:08:51.758Z,71.04
2022-10-11T15:11:22.272Z,71.65
2022-10-11T15:13:50.964Z,71.73
2022-10-11T15:16:23.791Z,72.29
2022-10-11T15:18:52.815Z,72.99
2022-10-11T15:21:23.005Z,73.73
2022-10-11T15:23:53.580Z,74.99
2022-10-11T15:26:24.054Z,74.72
2022-10-11T15:28:53.620Z,75.50
2022-10-11T15:31:26.895Z,75.77
2022-10-11T15:34:01.415Z,75.98
2022-10-11T15:36:34.177Z,75.77
2022-10-11T15:39:21.505Z,76.06
2022-10-11T15:41:51.376Z,76.70
2022-10-11T15:44:23.071Z,76.32
2022-10-11T15:47:02.150Z,77.21
2022-10-11T15:49:37.263Z,77.63
2022-10-11T15:52:07.277Z,78.18
2022-10-11T15:54:37.104Z,77.43
2022-10-11T15:57:05.524Z,78.46
2022-10-11T15:59:33.820Z,78.80
2022-10-11T16:02:04.024Z,79.72
2022-10-11T16:04:32.651Z,80.22
2022-10-11T16:07:05.183Z,80.65
2022-10-11T16:09:33.984Z,81.15
2022-10-11T16:12:03.172Z,81.44
2022-10-11T16:14:42.586Z,81.85
2022-10-11T16:17:15.481Z,82.50
2022-10-11T16:19:50.478Z,82.19
2022-10-11T16:22:26.854Z,83.46
2022-10-11T16:24:56.758Z,83.45
2022-10-11T16:27:24.912Z,84.07
2022-10-11T16:29:55.495Z,83.67
2022-10-11T16:32:25.594Z,83.02
2022-10-11T16:34:58.650Z,83.05
2022-10-11T16:37:29.373Z,83.26
2022-10-11T16:39:58.161Z,84.15
2022-10-11T16:42:29.223Z,84.55
2022-10-11T16:44:58.859Z,84.96
2022-10-11T16:47:28.967Z,85.40
2022-10-11T16:49:59.286Z,85.80
2022-10-11T16:52:29.717Z,86.18
2022-10-11T16:54:58.289Z,86.43
2022-10-11T16:57:26.729Z,86.66
2022-10-11T16:59:55.372Z,86.63
2022-10-11T17:02:31.334Z,86.81
2022-10-11T17:05:02.762Z,86.97
2022-10-11T17:07:32.200Z,87.50
2022-10-11T17:10:01.419Z,87.52
2022-10-11T17:12:32.354Z,87.75
2022-10-11T17:15:01.275Z,87.39
2022-10-11T17:17:31.556Z,87.61
2022-10-11T17:20:05.684Z,87.64
2022-10-11T17:22:35.523Z,87.50
2022-10-11T17:25:04.320Z,87.36
2022-10-11T17:27:33.495Z,87.30
2022-10-11T17:30:03.585Z,87.26
2022-10-11T17:32:36.809Z,87.21
2022-10-11T17:35:08.199Z,86.92
2022-10-11T17:37:37.542Z,86.91
2022-10-11T17:40:10.057Z,86.98
2022-10-11T17:42:42.760Z,87.19
2022-10-11T17:45:12.182Z,87.05
2022-10-11T17:47:40.217Z,87.02
2022-10-11T17:50:10.782Z,87.23
2022-10-11T17:52:39.327Z,87.58
2022-10-11T17:55:07.722Z,87.53
2022-10-11T17:57:37.353Z,87.55
2022-10-11T18:00:06.644Z,87.57
2022-10-11T18:02:34.767Z,87.35
2022-10-11T18:05:05.760Z,87.57
2022-10-11T18:07:38.184Z,87.77
2022-10-11T18:10:07.405Z,88.23
2022-10-11T18:12:36.385Z,88.63
2022-10-11T18:15:04.545Z,88.75
2022-10-11T18:17:34.030Z,87.97
2022-10-11T18:20:03.635Z,88.00
2022-10-11T18:22:32.158Z,88.71
2022-10-11T18:25:03.001Z,88.98
2022-10-11T18:27:31.181Z,89.38
2022-10-11T18:29:59.521Z,89.20
2022-10-11T18:32:27.966Z,88.87
2022-10-11T18:34:58.896Z,88.53
2022-10-11T18:37:28.910Z,89.04
2022-10-11T18:39:57.514Z,88.90
2022-10-11T18:42:27.129Z,89.16
2022-10-11T18:44:55.816Z,89.47
2022-10-11T18:47:24.894Z,89.46
2022-10-11T18:49:52.914Z,89.42
2022-10-11T18:52:22.259Z,89.75
2022-10-11T18:54:50.926Z,89.88
2022-10-11T18:57:23.788Z,90.04
2022-10-11T18:59:54.440Z,90.18
2022-10-11T19:02:23.813Z,90.13
2022-10-11T19:04:53.781Z,90.16
2022-10-11T19:07:23.369Z,90.19
2022-10-11T19:09:53.141Z,90.29
2022-10-11T19:12:22.337Z,90.60
2022-10-11T19:14:54.993Z,90.78
2022-10-11T19:17:24.936Z,91.30
2022-10-11T19:19:59.834Z,90.94
2022-10-11T19:22:28.355Z,91.03
2022-10-11T19:24:56.640Z,90.92
2022-10-11T19:27:25.066Z,91.13
2022-10-11T19:29:53.682Z,91.52
2022-10-11T19:32:21.847Z,91.87
2022-10-11T19:34:52.250Z,91.99
2022-10-11T19:37:21.511Z,92.40
2022-10-11T19:39:50.118Z,92.08
2022-10-11T19:42:20.323Z,92.36
2022-10-11T19:44:48.378Z,93.25
2022-10-11T19:47:17.068Z,93.17
2022-10-11T19:49:45.809Z,93.41
2022-10-11T19:52:21.556Z,93.15
2022-10-11T19:54:51.955Z,92.90
2022-10-11T19:57:22.779Z,92.68
2022-10-11T19:59:53.276Z,92.85
2022-10-11T20:02:22.250Z,93.28
2022-10-11T20:04:53.369Z,93.35
2022-10-11T20:07:26.217Z,93.19
2022-10-11T20:09:56.589Z,92.98
2022-10-11T20:12:29.366Z,93.19
2022-10-11T20:14:58.849Z,93.56
2022-10-11T20:17:45.644Z,93.36
2022-10-11T20:20:14.686Z,93.18
2022-10-11T20:22:47.393Z,93.02
2022-10-11T20:25:20.104Z,92.81
2022-10-11T20:27:56.895Z,92.96
2022-10-11T20:30:29.720Z,92.47
2022-10-11T20:32:59.632Z,92.19
2022-10-11T20:35:27.964Z,91.45
2022-10-11T20:37:59.934Z,90.70
2022-10-11T20:40:28.253Z,91.10
2022-10-11T20:42:59.939Z,91.40
2022-10-11T20:45:29.838Z,91.31
2022-10-11T20:47:59.231Z,91.47
2022-10-11T20:50:34.555Z,91.29
2022-10-11T20:53:05.141Z,91.12
2022-10-11T20:55:36.818Z,91.25
2022-10-11T20:58:05.593Z,91.35
2022-10-11T21:00:34.431Z,91.59
2022-10-11T21:03:08.312Z,91.78
2022-10-11T21:05:39.020Z,91.75
2022-10-11T21:08:08.803Z,91.77
2022-10-11T21:10:38.765Z,91.59
2022-10-11T21:13:09.245Z,91.60
2022-10-11T21:15:37.991Z,91.34
2022-10-11T21:18:08.179Z,91.29
2022-10-11T21:20:42.329Z,91.39
2022-10-11T21:23:15.967Z,91.63
2022-10-11T21:25:46.736Z,91.98
2022-10-11T21:28:16.435Z,91.97
2022-10-11T21:30:48.464Z,92.21
2022-10-11T21:33:18.242Z,92.39
2022-10-11T21:35:49.837Z,92.63
2022-10-11T21:38:24.958Z,92.74
2022-10-11T21:40:56.217Z,92.98
2022-10-11T21:43:26.480Z,93.16
2022-10-11T21:45:55.233Z,92.97
2022-10-11T21:48:24.244Z,93.24
2022-10-11T21:50:59.133Z,93.34
2022-10-11T21:53:32.787Z,93.25
2022-10-11T21:56:02.777Z,93.39
2022-10-11T21:58:32.860Z,93.65
2022-10-11T22:01:07.511Z,93.58
2022-10-11T22:03:36.871Z,93.44
2022-10-11T22:06:10.909Z,93.09
2022-10-11T22:08:41.636Z,93.31
2022-10-11T22:11:13.689Z,93.71
2022-10-11T22:13:42.467Z,93.82
2022-10-11T22:16:13.184Z,93.89
2022-10-11T22:18:44.790Z,94.13
2022-10-11T22:21:21.396Z,94.34
2022-10-11T22:23:55.756Z,94.57
2022-10-11T22:26:27.454Z,94.14
2022-10-11T22:29:01.999Z,94.15
2022-10-11T22:31:36.748Z,94.22
2022-10-11T22:34:06.739Z,94.23
2022-10-11T22:36:39.274Z,93.90
2022-10-11T22:39:11.760Z,93.89
2022-10-11T22:41:41.762Z,94.20
2022-10-11T22:44:13.568Z,94.05
2022-10-11T22:46:42.053Z,93.88
2022-10-11T22:49:12.737Z,94.02
2022-10-11T22:51:45.922Z,93.76
2022-10-11T22:54:21.646Z,93.95
2022-10-11T22:56:50.043Z,93.97
2022-10-11T22:59:18.226Z,94.29
2022-10-11T23:01:46.609Z,94.12
2022-10-11T23:04:17.851Z,94.17
2022-10-11T23:06:46.140Z,94.14
2022-10-11T23:09:16.491Z,94.18
2022-10-11T23:11:45.361Z,94.45
2022-10-11T23:14:17.923Z,94.51
2022-10-11T23:16:48.269Z,94.84
2022-10-11T23:19:18.118Z,95.08
2022-10-11T23:21:46.597Z,94.85
2022-10-11T23:24:16.739Z,94.93
2022-10-11T23:26:45.285Z,94.86
2022-10-11T23:29:15.406Z,94.99
2022-10-11T23:31:45.132Z,94.88
2022-10-11T23:34:13.364Z,95.20
2022-10-11T23:36:42.657Z,95.21
2022-10-11T23:39:12.684Z,95.40
2022-10-11T23:41:46.969Z,95.25
2022-10-11T23:44:15.511Z,95.09
2022-10-11T23:46:43.637Z,95.13
2022-10-11T23:49:14.970Z,95.27
2022-10-11T23:51:50.490Z,95.27
2022-10-11T23:54:19.389Z,95.30
2022-10-11T23:56:49.063Z,95.35
2022-10-11T23:59:18.062Z,95.22
